sensor_id;sensor_type;location;lat;lon;timestamp;pressure;altitude;pressure_sealevel;temperature;humidity
75172;BME280;63750;52.418;20.742;2022-12-18T00:01:37;102024.92;;;0.44;58.25
75172;BME280;63750;52.418;20.742;2022-12-18T00:04:14;102029.98;;;0.44;58.31
75172;BME280;63750;52.418;20.742;2022-12-18T00:06:45;102031.03;;;0.44;58.04
75172;BME280;63750;52.418;20.742;2022-12-18T00:09:13;102031.41;;;0.43;58.20
75172;BME280;63750;52.418;20.742;2022-12-18T00:11:42;102034.16;;;0.44;58.09
75172;BME280;63750;52.418;20.742;2022-12-18T00:14:13;102043.79;;;0.43;58.05
75172;BME280;63750;52.418;20.742;2022-12-18T00:16:45;102046.54;;;0.44;58.01
75172;BME280;63750;52.418;20.742;2022-12-18T00:19:14;102049.70;;;0.43;57.99
75172;BME280;63750;52.418;20.742;2022-12-18T00:21:44;102053.22;;;0.41;57.94
75172;BME280;63750;52.418;20.742;2022-12-18T00:24:13;102057.06;;;0.41;58.01
75172;BME280;63750;52.418;20.742;2022-12-18T00:26:44;102059.71;;;0.39;57.97
75172;BME280;63750;52.418;20.742;2022-12-18T00:29:15;102063.01;;;0.41;57.89
75172;BME280;63750;52.418;20.742;2022-12-18T00:31:45;102062.81;;;0.41;57.90
75172;BME280;63750;52.418;20.742;2022-12-18T00:34:15;102066.84;;;0.40;57.97
75172;BME280;63750;52.418;20.742;2022-12-18T00:36:47;102070.52;;;0.39;57.89
75172;BME280;63750;52.418;20.742;2022-12-18T00:39:16;102076.95;;;0.41;57.87
75172;BME280;63750;52.418;20.742;2022-12-18T00:41:45;102084.38;;;0.44;58.02
75172;BME280;63750;52.418;20.742;2022-12-18T00:44:17;102088.51;;;0.45;57.84
75172;BME280;63750;52.418;20.742;2022-12-18T00:46:47;102088.67;;;0.46;57.91
75172;BME280;63750;52.418;20.742;2022-12-18T00:49:21;102093.86;;;0.48;57.87
75172;BME280;63750;52.418;20.742;2022-12-18T00:51:52;102093.83;;;0.50;57.88
75172;BME280;63750;52.418;20.742;2022-12-18T00:54:21;102095.90;;;0.51;57.91
75172;BME280;63750;52.418;20.742;2022-12-18T00:56:50;102098.14;;;0.52;58.04
75172;BME280;63750;52.418;20.742;2022-12-18T00:59:19;102098.67;;;0.52;57.69
75172;BME280;63750;52.418;20.742;2022-12-18T01:01:48;102104.40;;;0.53;57.92
75172;BME280;63750;52.418;20.742;2022-12-18T01:04:17;102101.77;;;0.55;57.85
75172;BME280;63750;52.418;20.742;2022-12-18T01:06:45;102107.69;;;0.55;57.89
75172;BME280;63750;52.418;20.742;2022-12-18T01:09:14;102106.30;;;0.55;57.83
75172;BME280;63750;52.418;20.742;2022-12-18T01:11:42;102110.73;;;0.52;57.69
75172;BME280;63750;52.418;20.742;2022-12-18T01:14:11;102110.10;;;0.47;57.79
75172;BME280;63750;52.418;20.742;2022-12-18T01:16:39;102111.74;;;0.44;57.85
75172;BME280;63750;52.418;20.742;2022-12-18T01:19:07;102119.25;;;0.44;57.73
75172;BME280;63750;52.418;20.742;2022-12-18T01:21:36;102122.73;;;0.44;57.81
75172;BME280;63750;52.418;20.742;2022-12-18T01:24:05;102128.04;;;0.40;57.73
75172;BME280;63750;52.418;20.742;2022-12-18T01:26:34;102127.15;;;0.41;57.82
75172;BME280;63750;52.418;20.742;2022-12-18T01:29:02;102129.56;;;0.43;57.85
75172;BME280;63750;52.418;20.742;2022-12-18T01:31:32;102138.40;;;0.44;57.83
75172;BME280;63750;52.418;20.742;2022-12-18T01:34:02;102145.35;;;0.46;57.84
75172;BME280;63750;52.418;20.742;2022-12-18T01:36:33;102146.57;;;0.46;57.94
75172;BME280;63750;52.418;20.742;2022-12-18T01:39:05;102153.18;;;0.38;57.77
75172;BME280;63750;52.418;20.742;2022-12-18T01:41:35;102155.54;;;0.32;57.98
75172;BME280;63750;52.418;20.742;2022-12-18T01:47:02;102161.21;;;0.47;58.13
75172;BME280;63750;52.418;20.742;2022-12-18T01:49:31;102167.07;;;0.50;57.98
75172;BME280;63750;52.418;20.742;2022-12-18T01:51:59;102165.36;;;0.48;57.80
75172;BME280;63750;52.418;20.742;2022-12-18T01:54:28;102168.23;;;0.44;57.65
75172;BME280;63750;52.418;20.742;2022-12-18T01:56:57;102173.50;;;0.43;57.50
75172;BME280;63750;52.418;20.742;2022-12-18T01:59:25;102176.23;;;0.45;57.58
75172;BME280;63750;52.418;20.742;2022-12-18T02:01:53;102179.83;;;0.48;57.82
75172;BME280;63750;52.418;20.742;2022-12-18T02:04:24;102181.16;;;0.52;57.79
75172;BME280;63750;52.418;20.742;2022-12-18T02:06:57;102186.20;;;0.54;57.84
75172;BME280;63750;52.418;20.742;2022-12-18T02:09:31;102193.30;;;0.56;57.73
75172;BME280;63750;52.418;20.742;2022-12-18T02:12:08;102196.67;;;0.61;57.74
75172;BME280;63750;52.418;20.742;2022-12-18T02:14:45;102203.20;;;0.59;57.84
75172;BME280;63750;52.418;20.742;2022-12-18T02:17:18;102205.12;;;0.59;57.64
75172;BME280;63750;52.418;20.742;2022-12-18T02:20:01;102208.68;;;0.54;57.37
75172;BME280;63750;52.418;20.742;2022-12-18T02:22:39;102210.04;;;0.46;57.35
75172;BME280;63750;52.418;20.742;2022-12-18T02:25:26;102210.80;;;0.44;57.70
75172;BME280;63750;52.418;20.742;2022-12-18T02:28:02;102209.45;;;0.41;57.54
75172;BME280;63750;52.418;20.742;2022-12-18T02:30:35;102216.14;;;0.37;57.41
75172;BME280;63750;52.418;20.742;2022-12-18T02:33:07;102226.30;;;0.24;57.47
75172;BME280;63750;52.418;20.742;2022-12-18T02:35:37;102230.51;;;0.23;57.50
75172;BME280;63750;52.418;20.742;2022-12-18T02:38:08;102227.58;;;0.21;57.48
75172;BME280;63750;52.418;20.742;2022-12-18T02:40:38;102226.21;;;0.18;57.38
75172;BME280;63750;52.418;20.742;2022-12-18T02:43:11;102227.09;;;0.18;57.40
75172;BME280;63750;52.418;20.742;2022-12-18T02:45:48;102234.92;;;0.18;57.28
75172;BME280;63750;52.418;20.742;2022-12-18T02:48:19;102239.07;;;0.11;57.44
75172;BME280;63750;52.418;20.742;2022-12-18T02:50:57;102244.48;;;0.11;57.38
75172;BME280;63750;52.418;20.742;2022-12-18T02:53:31;102247.27;;;0.11;57.53
75172;BME280;63750;52.418;20.742;2022-12-18T02:56:10;102249.02;;;0.11;57.43
75172;BME280;63750;52.418;20.742;2022-12-18T02:58:47;102251.45;;;0.10;57.45
75172;BME280;63750;52.418;20.742;2022-12-18T03:01:21;102260.66;;;0.13;57.38
75172;BME280;63750;52.418;20.742;2022-12-18T03:03:57;102262.34;;;0.15;57.70
75172;BME280;63750;52.418;20.742;2022-12-18T03:06:30;102269.87;;;0.15;57.78
75172;BME280;63750;52.418;20.742;2022-12-18T03:09:03;102274.98;;;0.20;57.67
75172;BME280;63750;52.418;20.742;2022-12-18T03:11:36;102273.36;;;0.25;57.59
75172;BME280;63750;52.418;20.742;2022-12-18T03:14:08;102276.83;;;0.26;57.49
75172;BME280;63750;52.418;20.742;2022-12-18T03:16:39;102278.41;;;0.24;57.26
75172;BME280;63750;52.418;20.742;2022-12-18T03:19:13;102285.55;;;0.25;57.26
75172;BME280;63750;52.418;20.742;2022-12-18T03:21:47;102290.29;;;0.23;57.32
75172;BME280;63750;52.418;20.742;2022-12-18T03:24:18;102288.77;;;0.19;57.41
75172;BME280;63750;52.418;20.742;2022-12-18T03:26:51;102291.40;;;0.18;57.40
75172;BME280;63750;52.418;20.742;2022-12-18T03:29:24;102300.14;;;0.17;57.33
75172;BME280;63750;52.418;20.742;2022-12-18T03:31:56;102297.86;;;0.17;57.28
75172;BME280;63750;52.418;20.742;2022-12-18T03:34:33;102306.58;;;0.17;57.23
75172;BME280;63750;52.418;20.742;2022-12-18T03:37:04;102313.08;;;0.15;57.07
75172;BME280;63750;52.418;20.742;2022-12-18T03:39:33;102313.81;;;0.13;57.23
75172;BME280;63750;52.418;20.742;2022-12-18T03:42:07;102315.20;;;0.14;57.03
75172;BME280;63750;52.418;20.742;2022-12-18T03:44:42;102318.70;;;0.12;57.07
75172;BME280;63750;52.418;20.742;2022-12-18T03:47:16;102324.98;;;0.11;57.00
75172;BME280;63750;52.418;20.742;2022-12-18T03:49:53;102326.38;;;0.12;57.07
75172;BME280;63750;52.418;20.742;2022-12-18T03:52:28;102333.52;;;0.12;56.98
75172;BME280;63750;52.418;20.742;2022-12-18T03:54:59;102335.05;;;0.15;57.08
75172;BME280;63750;52.418;20.742;2022-12-18T03:57:31;102335.38;;;0.16;57.10
75172;BME280;63750;52.418;20.742;2022-12-18T04:00:04;102333.83;;;0.14;57.12
75172;BME280;63750;52.418;20.742;2022-12-18T04:02:33;102340.23;;;0.16;57.01
75172;BME280;63750;52.418;20.742;2022-12-18T04:05:06;102335.70;;;0.16;57.09
75172;BME280;63750;52.418;20.742;2022-12-18T04:07:37;102343.19;;;0.17;57.05
75172;BME280;63750;52.418;20.742;2022-12-18T04:10:09;102348.57;;;0.19;57.31
75172;BME280;63750;52.418;20.742;2022-12-18T04:12:39;102352.90;;;0.20;57.33
75172;BME280;63750;52.418;20.742;2022-12-18T04:15:10;102358.95;;;0.24;57.10
75172;BME280;63750;52.418;20.742;2022-12-18T04:17:41;102360.88;;;0.24;56.96
75172;BME280;63750;52.418;20.742;2022-12-18T04:20:13;102369.27;;;0.22;56.94
75172;BME280;63750;52.418;20.742;2022-12-18T04:22:46;102375.56;;;0.20;56.86
75172;BME280;63750;52.418;20.742;2022-12-18T04:25:15;102378.21;;;0.17;56.92
75172;BME280;63750;52.418;20.742;2022-12-18T04:27:46;102377.51;;;0.18;57.10
75172;BME280;63750;52.418;20.742;2022-12-18T04:30:16;102378.70;;;0.20;56.92
75172;BME280;63750;52.418;20.742;2022-12-18T04:32:45;102380.09;;;0.21;56.90
75172;BME280;63750;52.418;20.742;2022-12-18T04:35:13;102380.06;;;0.23;57.06
75172;BME280;63750;52.418;20.742;2022-12-18T04:37:42;102384.73;;;0.27;56.82
75172;BME280;63750;52.418;20.742;2022-12-18T04:40:13;102389.44;;;0.26;56.46
75172;BME280;63750;52.418;20.742;2022-12-18T04:42:42;102390.54;;;0.21;56.42
75172;BME280;63750;52.418;20.742;2022-12-18T04:45:12;102395.65;;;0.17;56.23
75172;BME280;63750;52.418;20.742;2022-12-18T04:47:40;102396.80;;;0.10;56.18
75172;BME280;63750;52.418;20.742;2022-12-18T04:50:10;102399.50;;;0.04;56.30
75172;BME280;63750;52.418;20.742;2022-12-18T04:52:38;102404.78;;;0.00;56.38
75172;BME280;63750;52.418;20.742;2022-12-18T04:55:08;102410.05;;;-0.03;56.37
75172;BME280;63750;52.418;20.742;2022-12-18T04:57:37;102409.92;;;-0.06;56.47
75172;BME280;63750;52.418;20.742;2022-12-18T05:00:09;102412.73;;;-0.09;56.38
75172;BME280;63750;52.418;20.742;2022-12-18T05:02:38;102416.61;;;-0.13;56.48
75172;BME280;63750;52.418;20.742;2022-12-18T05:05:08;102411.61;;;-0.15;56.57
75172;BME280;63750;52.418;20.742;2022-12-18T05:07:38;102414.77;;;-0.16;56.73
75172;BME280;63750;52.418;20.742;2022-12-18T05:10:09;102421.02;;;-0.15;56.75
75172;BME280;63750;52.418;20.742;2022-12-18T05:12:38;102426.42;;;-0.16;56.69
75172;BME280;63750;52.418;20.742;2022-12-18T05:15:09;102430.05;;;-0.15;56.90
75172;BME280;63750;52.418;20.742;2022-12-18T05:17:37;102434.10;;;-0.16;56.81
75172;BME280;63750;52.418;20.742;2022-12-18T05:20:06;102437.77;;;-0.17;56.66
75172;BME280;63750;52.418;20.742;2022-12-18T05:22:36;102435.86;;;-0.18;56.71
75172;BME280;63750;52.418;20.742;2022-12-18T05:25:05;102441.80;;;-0.20;56.77
75172;BME280;63750;52.418;20.742;2022-12-18T05:27:35;102446.33;;;-0.19;56.81
75172;BME280;63750;52.418;20.742;2022-12-18T05:30:05;102450.15;;;-0.19;56.88
75172;BME280;63750;52.418;20.742;2022-12-18T05:32:34;102452.23;;;-0.18;57.04
75172;BME280;63750;52.418;20.742;2022-12-18T05:35:04;102456.40;;;-0.17;56.97
75172;BME280;63750;52.418;20.742;2022-12-18T05:37:34;102463.51;;;-0.15;57.11
75172;BME280;63750;52.418;20.742;2022-12-18T05:40:07;102473.23;;;-0.13;57.26
75172;BME280;63750;52.418;20.742;2022-12-18T05:42:36;102476.86;;;-0.10;57.36
75172;BME280;63750;52.418;20.742;2022-12-18T05:45:07;102477.71;;;-0.07;57.32
75172;BME280;63750;52.418;20.742;2022-12-18T05:47:36;102478.02;;;-0.04;57.23
75172;BME280;63750;52.418;20.742;2022-12-18T05:50:07;102478.71;;;-0.03;57.12
75172;BME280;63750;52.418;20.742;2022-12-18T05:52:36;102475.55;;;-0.02;57.27
75172;BME280;63750;52.418;20.742;2022-12-18T05:55:05;102475.70;;;0.01;57.35
75172;BME280;63750;52.418;20.742;2022-12-18T05:57:34;102479.65;;;0.05;57.44
75172;BME280;63750;52.418;20.742;2022-12-18T06:00:04;102482.42;;;0.06;57.51
75172;BME280;63750;52.418;20.742;2022-12-18T06:02:33;102485.02;;;0.08;57.49
75172;BME280;63750;52.418;20.742;2022-12-18T06:05:05;102485.69;;;0.11;57.45
75172;BME280;63750;52.418;20.742;2022-12-18T06:07:34;102487.45;;;0.08;57.46
75172;BME280;63750;52.418;20.742;2022-12-18T06:10:03;102488.03;;;0.03;57.42
75172;BME280;63750;52.418;20.742;2022-12-18T06:12:33;102492.60;;;0.00;57.56
75172;BME280;63750;52.418;20.742;2022-12-18T06:15:03;102503.10;;;-0.02;57.54
75172;BME280;63750;52.418;20.742;2022-12-18T06:17:32;102509.20;;;-0.02;57.71
75172;BME280;63750;52.418;20.742;2022-12-18T06:20:01;102514.05;;;-0.00;57.71
75172;BME280;63750;52.418;20.742;2022-12-18T06:22:32;102516.11;;;0.01;57.75
75172;BME280;63750;52.418;20.742;2022-12-18T06:25:01;102523.42;;;0.01;57.78
75172;BME280;63750;52.418;20.742;2022-12-18T06:27:29;102518.88;;;0.02;57.91
75172;BME280;63750;52.418;20.742;2022-12-18T06:29:58;102524.79;;;0.04;58.03
75172;BME280;63750;52.418;20.742;2022-12-18T06:32:26;102529.83;;;0.05;57.97
75172;BME280;63750;52.418;20.742;2022-12-18T06:34:54;102535.56;;;0.07;58.07
75172;BME280;63750;52.418;20.742;2022-12-18T06:37:24;102538.34;;;0.10;58.08
75172;BME280;63750;52.418;20.742;2022-12-18T06:39:53;102545.80;;;0.13;57.90
75172;BME280;63750;52.418;20.742;2022-12-18T06:42:24;102546.66;;;0.13;58.01
75172;BME280;63750;52.418;20.742;2022-12-18T06:44:54;102545.27;;;0.14;58.07
75172;BME280;63750;52.418;20.742;2022-12-18T06:47:23;102547.70;;;0.14;58.08
75172;BME280;63750;52.418;20.742;2022-12-18T06:49:53;102554.51;;;0.13;57.97
75172;BME280;63750;52.418;20.742;2022-12-18T06:52:23;102561.98;;;0.14;58.04
75172;BME280;63750;52.418;20.742;2022-12-18T06:54:53;102562.02;;;0.11;58.10
75172;BME280;63750;52.418;20.742;2022-12-18T06:57:22;102563.09;;;0.08;58.25
75172;BME280;63750;52.418;20.742;2022-12-18T06:59:51;102565.34;;;0.10;58.29
75172;BME280;63750;52.418;20.742;2022-12-18T07:02:21;102572.96;;;0.14;58.35
75172;BME280;63750;52.418;20.742;2022-12-18T07:04:50;102575.69;;;0.18;58.27
75172;BME280;63750;52.418;20.742;2022-12-18T07:07:20;102573.23;;;0.21;58.52
75172;BME280;63750;52.418;20.742;2022-12-18T07:09:50;102578.93;;;0.26;58.62
75172;BME280;63750;52.418;20.742;2022-12-18T07:12:20;102579.88;;;0.33;58.56
75172;BME280;63750;52.418;20.742;2022-12-18T07:14:48;102577.94;;;0.36;58.40
75172;BME280;63750;52.418;20.742;2022-12-18T07:17:18;102585.93;;;0.39;58.25
75172;BME280;63750;52.418;20.742;2022-12-18T07:19:47;102591.68;;;0.39;58.24
75172;BME280;63750;52.418;20.742;2022-12-18T07:22:16;102601.79;;;0.40;58.20
75172;BME280;63750;52.418;20.742;2022-12-18T07:24:45;102609.81;;;0.40;58.24
75172;BME280;63750;52.418;20.742;2022-12-18T07:27:13;102611.94;;;0.36;58.20
75172;BME280;63750;52.418;20.742;2022-12-18T07:29:42;102615.13;;;0.31;58.23
75172;BME280;63750;52.418;20.742;2022-12-18T07:32:11;102626.51;;;0.28;58.24
75172;BME280;63750;52.418;20.742;2022-12-18T07:34:42;102627.40;;;0.25;58.33
75172;BME280;63750;52.418;20.742;2022-12-18T07:37:10;102627.23;;;0.25;58.45
75172;BME280;63750;52.418;20.742;2022-12-18T07:39:39;102634.21;;;0.24;58.52
75172;BME280;63750;52.418;20.742;2022-12-18T07:42:08;102639.85;;;0.18;58.49
75172;BME280;63750;52.418;20.742;2022-12-18T07:44:39;102643.80;;;0.07;58.60
75172;BME280;63750;52.418;20.742;2022-12-18T07:47:08;102649.23;;;0.02;58.60
75172;BME280;63750;52.418;20.742;2022-12-18T07:49:36;102655.41;;;-0.03;58.64
75172;BME280;63750;52.418;20.742;2022-12-18T07:52:05;102658.41;;;-0.09;58.71
75172;BME280;63750;52.418;20.742;2022-12-18T07:54:34;102658.76;;;-0.08;58.77
75172;BME280;63750;52.418;20.742;2022-12-18T07:57:04;102661.71;;;-0.09;58.72
75172;BME280;63750;52.418;20.742;2022-12-18T07:59:32;102667.98;;;-0.08;58.85
75172;BME280;63750;52.418;20.742;2022-12-18T08:02:02;102666.57;;;-0.06;58.92
75172;BME280;63750;52.418;20.742;2022-12-18T08:04:34;102674.05;;;-0.03;58.88
75172;BME280;63750;52.418;20.742;2022-12-18T08:07:03;102672.05;;;0.05;59.12
75172;BME280;63750;52.418;20.742;2022-12-18T08:09:35;102670.94;;;0.13;59.08
75172;BME280;63750;52.418;20.742;2022-12-18T08:12:05;102682.55;;;0.18;59.11
75172;BME280;63750;52.418;20.742;2022-12-18T08:14:33;102683.58;;;0.21;59.01
75172;BME280;63750;52.418;20.742;2022-12-18T08:17:02;102686.52;;;0.25;58.91
75172;BME280;63750;52.418;20.742;2022-12-18T08:19:31;102690.84;;;0.28;58.87
75172;BME280;63750;52.418;20.742;2022-12-18T08:22:00;102689.05;;;0.30;58.81
75172;BME280;63750;52.418;20.742;2022-12-18T08:24:29;102694.48;;;0.29;58.77
75172;BME280;63750;52.418;20.742;2022-12-18T08:26:58;102697.48;;;0.26;58.57
75172;BME280;63750;52.418;20.742;2022-12-18T08:29:26;102705.67;;;0.26;58.71
75172;BME280;63750;52.418;20.742;2022-12-18T08:31:54;102706.71;;;0.26;58.64
75172;BME280;63750;52.418;20.742;2022-12-18T08:34:24;102709.50;;;0.27;58.71
75172;BME280;63750;52.418;20.742;2022-12-18T08:36:52;102713.95;;;0.16;58.66
75172;BME280;63750;52.418;20.742;2022-12-18T08:39:22;102713.66;;;0.09;58.89
75172;BME280;63750;52.418;20.742;2022-12-18T08:41:52;102715.98;;;0.03;58.83
75172;BME280;63750;52.418;20.742;2022-12-18T08:44:20;102722.31;;;-0.02;58.97
75172;BME280;63750;52.418;20.742;2022-12-18T08:46:49;102722.60;;;0.03;59.08
75172;BME280;63750;52.418;20.742;2022-12-18T08:49:18;102724.20;;;-0.01;59.03
75172;BME280;63750;52.418;20.742;2022-12-18T08:51:47;102720.21;;;-0.02;59.16
75172;BME280;63750;52.418;20.742;2022-12-18T08:54:16;102723.30;;;0.02;59.30
75172;BME280;63750;52.418;20.742;2022-12-18T08:56:45;102730.18;;;-0.07;59.19
75172;BME280;63750;52.418;20.742;2022-12-18T08:59:14;102725.67;;;-0.12;59.12
75172;BME280;63750;52.418;20.742;2022-12-18T09:01:42;102722.77;;;-0.17;59.25
75172;BME280;63750;52.418;20.742;2022-12-18T09:04:13;102728.71;;;-0.21;59.38
75172;BME280;63750;52.418;20.742;2022-12-18T09:06:41;102738.98;;;-0.19;59.59
75172;BME280;63750;52.418;20.742;2022-12-18T09:09:12;102742.60;;;-0.13;59.64
75172;BME280;63750;52.418;20.742;2022-12-18T09:11:40;102743.42;;;-0.07;59.59
75172;BME280;63750;52.418;20.742;2022-12-18T09:14:11;102743.23;;;-0.06;59.48
75172;BME280;63750;52.418;20.742;2022-12-18T09:16:40;102745.85;;;-0.05;59.45
75172;BME280;63750;52.418;20.742;2022-12-18T09:19:10;102750.55;;;-0.06;59.34
75172;BME280;63750;52.418;20.742;2022-12-18T09:21:38;102748.15;;;-0.11;59.40
75172;BME280;63750;52.418;20.742;2022-12-18T09:24:08;102748.27;;;-0.27;59.42
75172;BME280;63750;52.418;20.742;2022-12-18T09:26:40;102749.75;;;-0.41;59.78
75172;BME280;63750;52.418;20.742;2022-12-18T09:29:08;102744.24;;;-0.53;59.98
75172;BME280;63750;52.418;20.742;2022-12-18T09:31:38;102748.23;;;-0.49;59.84
75172;BME280;63750;52.418;20.742;2022-12-18T09:34:09;102747.16;;;-0.45;59.94
75172;BME280;63750;52.418;20.742;2022-12-18T09:36:37;102749.89;;;-0.37;60.02
75172;BME280;63750;52.418;20.742;2022-12-18T09:39:06;102756.98;;;-0.28;60.08
75172;BME280;63750;52.418;20.742;2022-12-18T09:41:46;102756.05;;;-0.18;60.23
75172;BME280;63750;52.418;20.742;2022-12-18T09:44:22;102753.37;;;-0.11;60.20
75172;BME280;63750;52.418;20.742;2022-12-18T09:46:57;102752.43;;;-0.00;60.14
75172;BME280;63750;52.418;20.742;2022-12-18T09:49:30;102758.30;;;0.10;60.23
75172;BME280;63750;52.418;20.742;2022-12-18T09:52:08;102757.33;;;0.18;60.00
75172;BME280;63750;52.418;20.742;2022-12-18T09:54:40;102757.27;;;0.26;59.91
75172;BME280;63750;52.418;20.742;2022-12-18T09:57:15;102762.08;;;0.34;59.72
75172;BME280;63750;52.418;20.742;2022-12-18T09:59:48;102776.36;;;0.36;59.70
75172;BME280;63750;52.418;20.742;2022-12-18T10:02:20;102775.31;;;0.38;59.80
75172;BME280;63750;52.418;20.742;2022-12-18T10:05:06;102784.55;;;0.36;59.55
75172;BME280;63750;52.418;20.742;2022-12-18T10:07:47;102786.14;;;0.33;59.58
75172;BME280;63750;52.418;20.742;2022-12-18T10:10:26;102781.50;;;0.27;59.43
75172;BME280;63750;52.418;20.742;2022-12-18T10:13:05;102778.73;;;0.24;59.54
75172;BME280;63750;52.418;20.742;2022-12-18T10:15:43;102773.64;;;0.29;59.57
75172;BME280;63750;52.418;20.742;2022-12-18T10:18:27;102771.67;;;0.32;59.51
75172;BME280;63750;52.418;20.742;2022-12-18T10:21:02;102766.45;;;0.32;59.50
75172;BME280;63750;52.418;20.742;2022-12-18T10:23:37;102765.22;;;0.34;59.47
75172;BME280;63750;52.418;20.742;2022-12-18T10:26:11;102758.77;;;0.35;59.63
75172;BME280;63750;52.418;20.742;2022-12-18T10:28:41;102761.35;;;0.39;59.51
75172;BME280;63750;52.418;20.742;2022-12-18T10:31:14;102766.39;;;0.41;59.47
75172;BME280;63750;52.418;20.742;2022-12-18T10:33:44;102764.48;;;0.41;59.29
75172;BME280;63750;52.418;20.742;2022-12-18T10:36:14;102760.64;;;0.40;59.33
75172;BME280;63750;52.418;20.742;2022-12-18T10:38:42;102758.54;;;0.41;59.35
75172;BME280;63750;52.418;20.742;2022-12-18T10:41:26;102753.84;;;0.40;59.22
75172;BME280;63750;52.418;20.742;2022-12-18T10:44:15;102753.14;;;0.41;59.41
75172;BME280;63750;52.418;20.742;2022-12-18T10:46:46;102762.38;;;0.42;59.51
75172;BME280;63750;52.418;20.742;2022-12-18T10:49:25;102763.97;;;0.38;59.28
75172;BME280;63750;52.418;20.742;2022-12-18T10:52:06;102762.40;;;0.38;59.33
75172;BME280;63750;52.418;20.742;2022-12-18T10:54:39;102765.91;;;0.34;59.11
75172;BME280;63750;52.418;20.742;2022-12-18T10:57:30;102767.11;;;0.37;59.24
75172;BME280;63750;52.418;20.742;2022-12-18T11:00:01;102762.68;;;0.45;59.36
75172;BME280;63750;52.418;20.742;2022-12-18T11:02:44;102761.11;;;0.45;59.30
75172;BME280;63750;52.418;20.742;2022-12-18T11:05:27;102756.37;;;0.48;59.32
75172;BME280;63750;52.418;20.742;2022-12-18T11:07:57;102757.21;;;0.52;59.45
75172;BME280;63750;52.418;20.742;2022-12-18T11:10:29;102755.95;;;0.57;59.33
75172;BME280;63750;52.418;20.742;2022-12-18T11:13:11;102751.00;;;0.62;59.32
75172;BME280;63750;52.418;20.742;2022-12-18T11:15:41;102755.33;;;0.66;59.26
75172;BME280;63750;52.418;20.742;2022-12-18T11:18:18;102764.05;;;0.66;59.11
75172;BME280;63750;52.418;20.742;2022-12-18T11:20:54;102769.12;;;0.65;59.11
75172;BME280;63750;52.418;20.742;2022-12-18T11:23:24;102771.56;;;0.63;59.14
75172;BME280;63750;52.418;20.742;2022-12-18T11:25:59;102771.70;;;0.69;59.32
75172;BME280;63750;52.418;20.742;2022-12-18T11:28:36;102770.72;;;0.79;59.20
75172;BME280;63750;52.418;20.742;2022-12-18T11:31:23;102764.58;;;0.82;59.16
75172;BME280;63750;52.418;20.742;2022-12-18T11:34:00;102764.10;;;0.94;59.51
75172;BME280;63750;52.418;20.742;2022-12-18T11:36:34;102761.29;;;1.37;61.52
75172;BME280;63750;52.418;20.742;2022-12-18T11:39:12;102763.85;;;2.01;63.44
75172;BME280;63750;52.418;20.742;2022-12-18T11:41:47;102764.01;;;2.92;65.15
75172;BME280;63750;52.418;20.742;2022-12-18T11:44:23;102770.48;;;2.65;63.71
75172;BME280;63750;52.418;20.742;2022-12-18T11:46:55;102766.86;;;2.42;62.54
75172;BME280;63750;52.418;20.742;2022-12-18T11:49:28;102762.52;;;2.30;61.60
75172;BME280;63750;52.418;20.742;2022-12-18T11:52:09;102761.30;;;2.29;61.19
75172;BME280;63750;52.418;20.742;2022-12-18T11:54:40;102764.04;;;2.23;60.51
75172;BME280;63750;52.418;20.742;2022-12-18T11:57:18;102768.88;;;2.16;59.81
75172;BME280;63750;52.418;20.742;2022-12-18T11:59:58;102777.63;;;2.15;59.70
75172;BME280;63750;52.418;20.742;2022-12-18T12:05:47;102769.00;;;1.85;59.04
75172;BME280;63750;52.418;20.742;2022-12-18T12:08:27;102763.79;;;1.71;59.08
75172;BME280;63750;52.418;20.742;2022-12-18T12:11:05;102764.78;;;1.63;59.01
75172;BME280;63750;52.418;20.742;2022-12-18T12:13:48;102770.24;;;1.47;58.58
75172;BME280;63750;52.418;20.742;2022-12-18T12:16:28;102776.54;;;1.33;58.77
75172;BME280;63750;52.418;20.742;2022-12-18T12:19:13;102778.27;;;1.21;58.71
75172;BME280;63750;52.418;20.742;2022-12-18T12:21:52;102778.98;;;1.20;58.75
75172;BME280;63750;52.418;20.742;2022-12-18T12:24:31;102784.45;;;1.16;58.68
75172;BME280;63750;52.418;20.742;2022-12-18T12:27:07;102801.23;;;1.15;58.75
75172;BME280;63750;52.418;20.742;2022-12-18T12:29:50;102809.30;;;1.10;58.80
75172;BME280;63750;52.418;20.742;2022-12-18T12:32:35;102808.64;;;1.06;58.77
75172;BME280;63750;52.418;20.742;2022-12-18T12:35:17;102801.61;;;1.10;58.93
75172;BME280;63750;52.418;20.742;2022-12-18T12:37:56;102804.02;;;1.15;58.98
75172;BME280;63750;52.418;20.742;2022-12-18T12:40:29;102814.48;;;1.15;58.70
75172;BME280;63750;52.418;20.742;2022-12-18T12:43:02;102820.98;;;1.13;58.61
75172;BME280;63750;52.418;20.742;2022-12-18T12:45:36;102823.80;;;1.10;58.74
75172;BME280;63750;52.418;20.742;2022-12-18T12:48:19;102825.48;;;0.99;58.75
75172;BME280;63750;52.418;20.742;2022-12-18T12:50:52;102827.59;;;0.98;58.85
75172;BME280;63750;52.418;20.742;2022-12-18T12:53:28;102834.18;;;1.02;58.83
75172;BME280;63750;52.418;20.742;2022-12-18T12:55:59;102834.81;;;1.07;58.78
75172;BME280;63750;52.418;20.742;2022-12-18T12:58:33;102837.31;;;1.03;58.87
75172;BME280;63750;52.418;20.742;2022-12-18T13:01:12;102839.96;;;1.00;58.77
75172;BME280;63750;52.418;20.742;2022-12-18T13:04:00;102843.92;;;1.05;58.71
75172;BME280;63750;52.418;20.742;2022-12-18T13:06:40;102848.16;;;1.01;59.07
75172;BME280;63750;52.418;20.742;2022-12-18T13:09:12;102852.33;;;1.02;58.93
75172;BME280;63750;52.418;20.742;2022-12-18T13:11:45;102855.77;;;1.06;58.70
75172;BME280;63750;52.418;20.742;2022-12-18T13:14:26;102858.27;;;1.02;59.00
75172;BME280;63750;52.418;20.742;2022-12-18T13:17:16;102855.85;;;1.00;59.13
75172;BME280;63750;52.418;20.742;2022-12-18T13:20:02;102863.16;;;1.02;58.98